Time;durP1;ratioP1;P1;durP2;ratioP2;P2;SDS_P1;SDS_P2;PMS_P1;PMS_P2;Temp;Humidity;BMP_temperature;BMP_pressure;BME280_temperature;BME280_humidity;BME280_pressure;Samples;Min_cycle;Max_cycle;Signal;HPM_P1;HPM_P2
2022/11/12 00:02:42;;;;;;;11.13;6.93;;;;;;;;;;5002661;28;20034;-82
2022/11/12 00:05:26;;;;;;;20.42;9.48;;;;;;;;;;5007825;28;20026;-82
2022/11/12 00:08:11;;;;;;;18.45;5.97;;;;;;;;;;5007006;28;20041;-82
2022/11/12 00:10:56;;;;;;;20.65;9.82;;;;;;;;;;4992997;28;20044;-82
2022/11/12 00:13:42;;;;;;;25.02;7.15;;;;;;;;;;5005081;28;20038;-82
2022/11/12 00:16:27;;;;;;;15.55;8.23;;;;;;;;;;5002763;28;20030;-82
2022/11/12 00:19:11;;;;;;;14.35;7.10;;;;;;;;;;5005238;28;20557;-82
2022/11/12 00:21:56;;;;;;;47.92;9.30;;;;;;;;;;5005706;28;20026;-82
2022/11/12 00:24:40;;;;;;;15.32;7.32;;;;;;;;;;5004084;28;20053;-81
2022/11/12 00:27:24;;;;;;;23.08;8.23;;;;;;;;;;4995135;28;20034;-81
2022/11/12 00:30:09;;;;;;;33.33;9.60;;;;;;;;;;5009880;28;20037;-81
2022/11/12 00:32:56;;;;;;;31.10;8.82;;;;;;;;;;5005270;28;20077;-81
2022/11/12 00:35:40;;;;;;;14.68;7.13;;;;;;;;;;5009327;28;20030;-81
2022/11/12 00:38:25;;;;;;;10.85;7.95;;;;;;;;;;5007175;28;20037;-81
2022/11/12 00:41:09;;;;;;;29.45;10.48;;;;;;;;;;5004298;28;20395;-81
2022/11/12 00:43:56;;;;;;;20.38;7.13;;;;;;;;;;4988531;28;20030;-81
2022/11/12 00:46:42;;;;;;;46.35;10.95;;;;;;;;;;5022661;22;20041;-75
2022/11/12 00:49:27;;;;;;;60.78;16.20;;;;;;;;;;5023979;28;20499;-75
2022/11/12 00:52:14;;;;;;;35.40;9.90;;;;;;;;;;5020325;28;20025;-75
2022/11/12 00:55:00;;;;;;;89.75;16.55;;;;;;;;;;5025148;28;20406;-75
2022/11/12 00:57:47;;;;;;;49.92;9.70;;;;;;;;;;5009534;28;20034;-75
2022/11/12 01:00:32;;;;;;;50.42;9.82;;;;;;;;;;4983159;28;20042;-75
2022/11/12 01:03:16;;;;;;;36.78;8.82;;;;;;;;;;4986815;28;20052;-75
2022/11/12 01:06:04;;;;;;;58.85;10.98;;;;;;;;;;5004396;28;20516;-75
2022/11/12 01:08:49;;;;;;;74.85;13.18;;;;;;;;;;4993376;28;20033;-75
2022/11/12 01:11:36;;;;;;;51.50;10.35;;;;;;;;;;4997601;28;20034;-75
2022/11/12 01:14:23;;;;;;;67.13;11.10;;;;;;;;;;5006171;28;20030;-75
2022/11/12 01:17:10;;;;;;;61.58;11.68;;;;;;;;;;4988056;28;20042;-75
2022/11/12 01:19:56;;;;;;;149.40;20.20;;;;;;;;;;4992936;28;20053;-75
2022/11/12 01:22:41;;;;;;;189.23;25.58;;;;;;;;;;4997048;28;20049;-75
2022/11/12 01:25:25;;;;;;;157.65;16.15;;;;;;;;;;4997618;28;20029;-75
2022/11/12 01:28:10;;;;;;;191.77;23.35;;;;;;;;;;5003051;28;20034;-75
2022/11/12 01:30:54;;;;;;;134.88;16.95;;;;;;;;;;5006924;28;20041;-75
2022/11/12 01:33:41;;;;;;;158.80;21.35;;;;;;;;;;5002111;28;20041;-75
2022/11/12 01:36:26;;;;;;;73.57;13.80;;;;;;;;;;4996554;28;20034;-75
2022/11/12 01:39:11;;;;;;;122.05;15.82;;;;;;;;;;4999957;28;20038;-75
2022/11/12 01:42:00;;;;;;;152.07;19.60;;;;;;;;;;5004076;28;20476;-75
2022/11/12 01:44:45;;;;;;;139.73;20.27;;;;;;;;;;5002213;28;20117;-75
2022/11/12 01:47:33;;;;;;;65.78;10.52;;;;;;;;;;5001520;28;20038;-75
2022/11/12 01:50:23;;;;;;;96.43;12.43;;;;;;;;;;5001961;28;20034;-75
2022/11/12 01:53:13;;;;;;;99.93;14.25;;;;;;;;;;5004847;28;20026;-75
2022/11/12 01:56:02;;;;;;;66.22;9.35;;;;;;;;;;5003108;28;20405;-75
2022/11/12 01:58:47;;;;;;;52.97;9.23;;;;;;;;;;5006810;28;20030;-75
2022/11/12 02:01:33;;;;;;;179.15;19.77;;;;;;;;;;5002549;28;20030;-75
2022/11/12 02:04:22;;;;;;;37.45;9.10;;;;;;;;;;5003399;28;20357;-75
2022/11/12 02:07:07;;;;;;;199.45;18.77;;;;;;;;;;5003728;28;20022;-75
2022/11/12 02:09:52;;;;;;;149.68;12.52;;;;;;;;;;5003108;28;20030;-76
2022/11/12 02:15:43;;;;;;;108.07;11.80;;;;;;;;;;5004918;28;20041;-75
2022/11/12 02:18:28;;;;;;;77.32;12.55;;;;;;;;;;5000979;28;20030;-75
2022/11/12 02:21:15;;;;;;;98.63;11.52;;;;;;;;;;5006571;28;20034;-75
2022/11/12 02:24:25;;;;;;;99.47;16.63;;;;;;;;;;5002992;28;20022;-75
2022/11/12 02:27:17;;;;;;;116.30;18.27;;;;;;;;;;5007080;28;20033;-75
2022/11/12 02:30:07;;;;;;;93.82;12.68;;;;;;;;;;5009308;28;20503;-75
2022/11/12 02:32:51;;;;;;;136.68;11.80;;;;;;;;;;4993852;28;20049;-75
2022/11/12 02:35:38;;;;;;;38.03;7.05;;;;;;;;;;5007495;28;20037;-75
2022/11/12 02:38:23;;;;;;;70.05;10.32;;;;;;;;;;5007546;28;20040;-76
2022/11/12 02:41:09;;;;;;;70.15;11.07;;;;;;;;;;4991154;28;20026;-75
2022/11/12 02:43:54;;;;;;;118.72;14.27;;;;;;;;;;5007189;28;20030;-75
2022/11/12 02:46:38;;;;;;;119.57;14.30;;;;;;;;;;5000404;28;20038;-75
2022/11/12 02:49:24;;;;;;;47.92;8.82;;;;;;;;;;5007544;28;20475;-75
2022/11/12 02:52:14;;;;;;;73.53;11.30;;;;;;;;;;5000270;28;20030;-75
2022/11/12 02:55:00;;;;;;;63.53;9.55;;;;;;;;;;5004896;28;20034;-75
2022/11/12 02:57:48;;;;;;;26.85;7.55;;;;;;;;;;4990860;28;20053;-75
2022/11/12 03:00:35;;;;;;;99.28;9.23;;;;;;;;;;5006804;28;20053;-75
2022/11/12 03:03:22;;;;;;;120.57;13.65;;;;;;;;;;5007316;28;20037;-76
2022/11/12 03:06:09;;;;;;;77.07;12.70;;;;;;;;;;5004162;28;20030;-75
2022/11/12 03:08:53;;;;;;;46.65;7.30;;;;;;;;;;5003627;28;20033;-75
2022/11/12 03:11:40;;;;;;;68.88;9.40;;;;;;;;;;5001038;28;20030;-76
2022/11/12 03:14:29;;;;;;;31.70;7.75;;;;;;;;;;5006428;28;20041;-76
2022/11/12 03:17:14;;;;;;;45.58;8.05;;;;;;;;;;5003820;28;20030;-76
2022/11/12 03:20:00;;;;;;;91.00;12.65;;;;;;;;;;4999457;28;20396;-76
2022/11/12 03:22:57;;;;;;;126.65;15.75;;;;;;;;;;4999364;28;20030;-76
2022/11/12 03:25:44;;;;;;;37.42;8.00;;;;;;;;;;5005524;28;20037;-76
2022/11/12 03:28:31;;;;;;;75.15;11.23;;;;;;;;;;4998640;28;20500;-76
2022/11/12 03:31:15;;;;;;;71.05;9.43;;;;;;;;;;5004262;28;20038;-76
2022/11/12 03:34:02;;;;;;;92.90;11.98;;;;;;;;;;5002499;28;20049;-75
2022/11/12 03:36:46;;;;;;;28.48;6.45;;;;;;;;;;5002377;28;20034;-76
2022/11/12 03:39:31;;;;;;;157.20;15.93;;;;;;;;;;5001002;28;20037;-76
2022/11/12 03:42:15;;;;;;;159.25;19.38;;;;;;;;;;4990103;28;20037;-76
2022/11/12 03:45:02;;;;;;;153.77;17.30;;;;;;;;;;5006550;28;20038;-76
2022/11/12 03:47:47;;;;;;;123.05;14.35;;;;;;;;;;5005197;28;20038;-75
2022/11/12 03:50:32;;;;;;;125.75;12.93;;;;;;;;;;5006166;28;20044;-76
2022/11/12 03:53:16;;;;;;;133.95;14.48;;;;;;;;;;5006148;28;20510;-75
2022/11/12 03:56:03;;;;;;;109.05;13.07;;;;;;;;;;5006090;28;20393;-76
2022/11/12 03:58:50;;;;;;;37.30;6.55;;;;;;;;;;4993298;28;20030;-76
2022/11/12 04:01:39;;;;;;;83.80;12.25;;;;;;;;;;5009141;28;20090;-76
2022/11/12 04:08:34;;;;;;;91.15;8.95;;;;;;;;;;4988554;28;20034;-76
2022/11/12 04:10:34;;;;;;;21.40;4.72;;;;;;;;;;5001628;28;20103;-76
2022/11/12 04:13:29;;;;;;;25.63;6.95;;;;;;;;;;5003676;28;20033;-76
2022/11/12 04:22:27;;;;;;;21.15;6.80;;;;;;;;;;5003272;28;20022;-76
2022/11/12 04:28:19;;;;;;;68.72;8.57;;;;;;;;;;5004943;28;20535;-76
2022/11/12 04:31:04;;;;;;;83.85;11.48;;;;;;;;;;5002122;28;20026;-76
2022/11/12 04:33:48;;;;;;;81.60;8.93;;;;;;;;;;5007198;28;20030;-75
2022/11/12 04:36:32;;;;;;;27.70;4.93;;;;;;;;;;5002587;28;20034;-75
2022/11/12 04:39:16;;;;;;;36.63;7.10;;;;;;;;;;5001578;28;20034;-75
2022/11/12 04:45:11;;;;;;;60.28;10.90;;;;;;;;;;5003184;28;20929;-76
2022/11/12 04:47:56;;;;;;;59.47;6.85;;;;;;;;;;5003457;28;20624;-75
2022/11/12 04:50:41;;;;;;;21.92;5.15;;;;;;;;;;5006891;28;20030;-75
2022/11/12 04:53:26;;;;;;;31.88;5.38;;;;;;;;;;5002666;28;20038;-76
2022/11/12 04:56:10;;;;;;;21.45;6.65;;;;;;;;;;5003039;28;20030;-75
2022/11/12 04:58:57;;;;;;;34.65;8.23;;;;;;;;;;4991665;28;20040;-75
2022/11/12 05:01:42;;;;;;;51.35;6.25;;;;;;;;;;5006097;28;20041;-75
2022/11/12 05:04:28;;;;;;;16.65;4.38;;;;;;;;;;4991239;28;20034;-75
2022/11/12 05:07:13;;;;;;;41.50;7.80;;;;;;;;;;5006097;28;20029;-75
2022/11/12 05:10:00;;;;;;;43.72;5.32;;;;;;;;;;5003576;28;20435;-75
2022/11/12 05:12:44;;;;;;;28.05;7.55;;;;;;;;;;5004473;28;20041;-76
2022/11/12 05:15:31;;;;;;;86.75;8.32;;;;;;;;;;4988933;28;20045;-75
2022/11/12 05:18:16;;;;;;;57.50;8.38;;;;;;;;;;5006835;28;20034;-76
2022/11/12 05:22:03;;;;;;;18.10;4.80;;;;;;;;;;4990234;28;20052;-75
2022/11/12 05:24:09;;;;;;;38.33;6.90;;;;;;;;;;5006159;28;20526;-75
2022/11/12 05:26:53;;;;;;;37.28;7.55;;;;;;;;;;5004101;28;20492;-78
2022/11/12 05:29:37;;;;;;;28.42;5.03;;;;;;;;;;5005198;28;20026;-75
2022/11/12 05:32:22;;;;;;;21.75;5.43;;;;;;;;;;5002545;28;20033;-75
2022/11/12 05:35:06;;;;;;;17.98;4.47;;;;;;;;;;5001936;28;20431;-75
2022/11/12 05:37:53;;;;;;;15.45;5.85;;;;;;;;;;5004523;28;20045;-76
2022/11/12 05:40:38;;;;;;;41.05;6.97;;;;;;;;;;4992841;28;20033;-76
2022/11/12 05:43:24;;;;;;;53.58;7.82;;;;;;;;;;5002242;28;20030;-75
2022/11/12 05:46:14;;;;;;;37.70;5.00;;;;;;;;;;5000991;28;20034;-75
2022/11/12 05:49:00;;;;;;;38.90;7.03;;;;;;;;;;5003305;28;20037;-76
2022/11/12 05:51:47;;;;;;;49.58;7.65;;;;;;;;;;5009895;28;20385;-75
2022/11/12 05:54:32;;;;;;;19.98;5.63;;;;;;;;;;5006951;28;20040;-75
2022/11/12 05:57:19;;;;;;;35.92;7.47;;;;;;;;;;5005301;28;20029;-76
2022/11/12 06:00:04;;;;;;;69.85;9.50;;;;;;;;;;5001369;28;20041;-75
2022/11/12 06:02:48;;;;;;;44.97;5.72;;;;;;;;;;5000859;28;20045;-75
2022/11/12 06:05:35;;;;;;;20.50;5.05;;;;;;;;;;4990317;28;20472;-75
2022/11/12 06:08:25;;;;;;;18.17;5.18;;;;;;;;;;5002507;28;20495;-76
2022/11/12 06:11:09;;;;;;;13.43;4.25;;;;;;;;;;5004935;28;20029;-75
2022/11/12 06:13:57;;;;;;;26.83;5.32;;;;;;;;;;5003030;28;20037;-76
2022/11/12 06:16:41;;;;;;;20.05;4.65;;;;;;;;;;5001597;28;20088;-76
2022/11/12 06:19:29;;;;;;;49.95;5.85;;;;;;;;;;5004538;28;20057;-75
2022/11/12 06:22:13;;;;;;;37.78;5.60;;;;;;;;;;5002903;28;20032;-76
2022/11/12 06:24:57;;;;;;;27.13;6.38;;;;;;;;;;5003527;28;20030;-76
2022/11/12 06:27:44;;;;;;;61.80;7.35;;;;;;;;;;5007984;28;20042;-76
2022/11/12 06:30:29;;;;;;;17.30;4.72;;;;;;;;;;5006104;28;20365;-76
2022/11/12 06:33:13;;;;;;;17.48;5.47;;;;;;;;;;5008247;28;20030;-76
2022/11/12 06:36:01;;;;;;;13.25;4.22;;;;;;;;;;5002221;28;20034;-76
2022/11/12 06:38:46;;;;;;;21.75;5.90;;;;;;;;;;5003666;28;20038;-76
2022/11/12 06:41:30;;;;;;;11.68;6.60;;;;;;;;;;4991023;28;20034;-76
2022/11/12 06:44:15;;;;;;;18.58;7.30;;;;;;;;;;5006276;28;20037;-76
2022/11/12 06:47:00;;;;;;;10.75;5.82;;;;;;;;;;5015963;22;20046;-82
2022/11/12 06:49:45;;;;;;;34.05;7.97;;;;;;;;;;4982273;28;20065;-82
2022/11/12 06:52:29;;;;;;;34.78;8.52;;;;;;;;;;4997820;28;20487;-82
2022/11/12 06:55:16;;;;;;;62.33;7.78;;;;;;;;;;5006330;28;20033;-82
2022/11/12 06:58:00;;;;;;;33.70;6.03;;;;;;;;;;5005271;28;20396;-82
2022/11/12 07:00:47;;;;;;;26.35;4.75;;;;;;;;;;4998323;28;20048;-82
2022/11/12 07:03:34;;;;;;;30.33;5.82;;;;;;;;;;5009740;28;20029;-82
2022/11/12 07:06:21;;;;;;;45.22;8.93;;;;;;;;;;4992392;28;20045;-81
2022/11/12 07:09:05;;;;;;;28.90;6.32;;;;;;;;;;5009195;28;20045;-82
2022/11/12 07:11:55;;;;;;;29.48;7.00;;;;;;;;;;4992986;28;20053;-82
2022/11/12 07:14:39;;;;;;;70.45;7.28;;;;;;;;;;4992740;28;20030;-82
2022/11/12 07:17:24;;;;;;;71.25;8.43;;;;;;;;;;5006477;28;20029;-81
2022/11/12 07:20:09;;;;;;;31.08;6.97;;;;;;;;;;5005966;28;20539;-81
2022/11/12 07:22:53;;;;;;;135.82;15.07;;;;;;;;;;5007290;28;20026;-81
2022/11/12 07:25:42;;;;;;;75.00;12.23;;;;;;;;;;5006639;28;20519;-81
2022/11/12 07:28:27;;;;;;;97.20;13.23;;;;;;;;;;4992199;28;20586;-81
2022/11/12 07:31:18;;;;;;;79.70;9.45;;;;;;;;;;5008463;28;20022;-81
2022/11/12 07:34:05;;;;;;;94.55;10.18;;;;;;;;;;5004959;28;20030;-80
2022/11/12 07:36:52;;;;;;;28.85;6.47;;;;;;;;;;5009310;28;20049;-81
2022/11/12 07:39:39;;;;;;;66.05;11.00;;;;;;;;;;5004806;28;21442;-81
2022/11/12 07:42:26;;;;;;;33.28;7.18;;;;;;;;;;5000553;28;20514;-80
2022/11/12 07:45:10;;;;;;;69.18;9.65;;;;;;;;;;5006805;28;20029;-81
2022/11/12 07:47:57;;;;;;;65.72;7.93;;;;;;;;;;5010244;28;20086;-81
2022/11/12 07:50:41;;;;;;;34.63;8.80;;;;;;;;;;5006938;28;20040;-81
2022/11/12 07:53:26;;;;;;;45.63;7.93;;;;;;;;;;5002659;28;20026;-81
2022/11/12 07:56:17;;;;;;;90.53;9.20;;;;;;;;;;4985882;28;20053;-81
2022/11/12 07:59:04;;;;;;;41.92;5.78;;;;;;;;;;5008560;28;20018;-81
2022/11/12 08:01:53;;;;;;;83.25;8.88;;;;;;;;;;5011638;28;20037;-81
2022/11/12 08:04:38;;;;;;;59.78;7.00;;;;;;;;;;5007817;28;20033;-81
2022/11/12 08:07:25;;;;;;;37.40;10.13;;;;;;;;;;4992808;28;20025;-81
2022/11/12 08:10:10;;;;;;;33.90;5.82;;;;;;;;;;5003908;28;20026;-82
2022/11/12 08:12:57;;;;;;;86.38;9.48;;;;;;;;;;5008779;28;20113;-82
2022/11/12 08:15:44;;;;;;;35.20;6.28;;;;;;;;;;5005308;28;20369;-82
2022/11/12 08:18:30;;;;;;;50.10;7.57;;;;;;;;;;5009137;28;20030;-82
2022/11/12 08:21:15;;;;;;;38.53;6.20;;;;;;;;;;4993480;28;20041;-82
2022/11/12 08:24:00;;;;;;;44.85;5.22;;;;;;;;;;5009778;28;20026;-82
2022/11/12 08:26:46;;;;;;;75.97;9.55;;;;;;;;;;5008130;28;20034;-82
2022/11/12 08:29:33;;;;;;;24.58;6.32;;;;;;;;;;5009746;28;20396;-81
2022/11/12 08:32:22;;;;;;;76.43;7.32;;;;;;;;;;5007724;28;20034;-81
2022/11/12 08:35:07;;;;;;;46.20;7.32;;;;;;;;;;5009114;28;20038;-82
2022/11/12 08:37:56;;;;;;;25.30;5.57;;;;;;;;;;5006100;28;20045;-82
2022/11/12 08:40:40;;;;;;;20.92;7.57;;;;;;;;;;4991795;28;20033;-82
2022/11/12 08:43:27;;;;;;;8.30;4.50;;;;;;;;;;5009614;28;20030;-82
2022/11/12 08:46:11;;;;;;;16.90;4.55;;;;;;;;;;5011246;28;20037;-82
2022/11/12 08:48:59;;;;;;;13.50;6.20;;;;;;;;;;5008849;28;20037;-81
2022/11/12 08:51:43;;;;;;;5.80;4.15;;;;;;;;;;5007763;28;20038;-81
2022/11/12 08:54:32;;;;;;;10.63;4.80;;;;;;;;;;4996371;28;20419;-82
2022/11/12 08:57:19;;;;;;;10.82;6.57;;;;;;;;;;5008035;28;20034;-82
2022/11/12 09:00:04;;;;;;;13.23;7.32;;;;;;;;;;5011727;28;20030;-82
2022/11/12 09:02:50;;;;;;;10.38;8.52;;;;;;;;;;5010299;28;20040;-80
2022/11/12 09:05:37;;;;;;;12.75;9.35;;;;;;;;;;5008047;28;20026;-82
2022/11/12 09:08:23;;;;;;;14.27;7.78;;;;;;;;;;5005144;28;20050;-82
2022/11/12 09:11:10;;;;;;;12.73;8.50;;;;;;;;;;5008053;28;20018;-82
2022/11/12 09:13:54;;;;;;;6.65;5.57;;;;;;;;;;5008709;28;20041;-82
2022/11/12 09:16:41;;;;;;;9.52;5.30;;;;;;;;;;5000066;28;20032;-82
2022/11/12 09:19:27;;;;;;;7.82;5.78;;;;;;;;;;5007251;28;20018;-81
2022/11/12 09:22:14;;;;;;;7.20;5.68;;;;;;;;;;5008387;28;20034;-82
2022/11/12 09:24:58;;;;;;;5.45;4.72;;;;;;;;;;5009881;28;20036;-81
2022/11/12 09:27:45;;;;;;;5.28;4.55;;;;;;;;;;5001346;28;20495;-82
2022/11/12 09:30:29;;;;;;;4.85;4.38;;;;;;;;;;5010958;28;20026;-81
2022/11/12 09:33:18;;;;;;;6.22;5.00;;;;;;;;;;5010601;28;20041;-82
2022/11/12 09:36:03;;;;;;;8.50;5.97;;;;;;;;;;4986525;28;20034;-82
2022/11/12 09:38:47;;;;;;;8.27;4.55;;;;;;;;;;4994338;28;20030;-82
2022/11/12 09:41:39;;;;;;;6.32;5.07;;;;;;;;;;5009763;28;20033;-82
2022/11/12 09:44:26;;;;;;;5.75;4.72;;;;;;;;;;4994259;28;20039;-82
2022/11/12 09:47:19;;;;;;;6.03;5.50;;;;;;;;;;5007090;28;20033;-82
2022/11/12 09:50:06;;;;;;;10.38;7.00;;;;;;;;;;5007581;28;20030;-82
2022/11/12 09:52:55;;;;;;;4.97;4.47;;;;;;;;;;5008423;28;20034;-82
2022/11/12 09:55:41;;;;;;;6.47;5.88;;;;;;;;;;5006162;28;20034;-82
2022/11/12 09:58:28;;;;;;;5.80;5.25;;;;;;;;;;4990306;28;20037;-82
2022/11/12 10:01:13;;;;;;;5.80;5.30;;;;;;;;;;5009000;28;20035;-82
2022/11/12 10:04:13;;;;;;;6.28;5.68;;;;;;;;;;5011457;28;20026;-82
2022/11/12 10:06:58;;;;;;;6.65;4.82;;;;;;;;;;4992933;28;20036;-82
2022/11/12 10:09:51;;;;;;;4.85;4.20;;;;;;;;;;4986948;28;20026;-82
2022/11/12 10:13:14;;;;;;;6.60;6.00;;;;;;;;;;5006603;28;20030;-82
2022/11/12 10:19:05;;;;;;;5.60;5.03;;;;;;;;;;4923622;29;20043;-82
2022/11/12 10:22:01;;;;;;;5.65;4.47;;;;;;;;;;4988246;28;20037;-82
2022/11/12 10:24:47;;;;;;;5.78;4.75;;;;;;;;;;5009932;28;20034;-82
2022/11/12 10:27:37;;;;;;;5.55;4.97;;;;;;;;;;5004237;28;20026;-83
2022/11/12 10:30:24;;;;;;;9.10;5.30;;;;;;;;;;5002937;28;20029;-83
2022/11/12 10:33:15;;;;;;;7.57;5.25;;;;;;;;;;5008107;28;20030;-82
2022/11/12 10:36:11;;;;;;;7.85;5.47;;;;;;;;;;5009946;28;20515;-79
2022/11/12 10:38:56;;;;;;;5.03;4.53;;;;;;;;;;5005755;28;20030;-80
2022/11/12 10:41:40;;;;;;;6.28;5.13;;;;;;;;;;5005149;28;20388;-81
2022/11/12 10:44:26;;;;;;;8.07;5.45;;;;;;;;;;4993575;28;20029;-81
2022/11/12 10:47:31;;;;;;;6.57;5.18;;;;;;;;;;4993986;28;20030;-81
2022/11/12 10:50:18;;;;;;;5.32;4.82;;;;;;;;;;5008547;28;20022;-81
2022/11/12 10:53:06;;;;;;;10.35;6.72;;;;;;;;;;4991066;28;20025;-82
2022/11/12 10:56:01;;;;;;;7.38;6.03;;;;;;;;;;5011533;28;20042;-82
2022/11/12 10:59:06;;;;;;;5.88;4.38;;;;;;;;;;5007944;28;20515;-82
2022/11/12 11:01:56;;;;;;;8.05;6.38;;;;;;;;;;5009028;28;20037;-82
2022/11/12 11:04:41;;;;;;;7.47;5.20;;;;;;;;;;5013799;28;20030;-82
2022/11/12 11:07:25;;;;;;;8.23;6.47;;;;;;;;;;5001969;28;20030;-82
2022/11/12 11:10:23;;;;;;;9.77;7.65;;;;;;;;;;5004198;28;20456;-83
2022/11/12 11:13:20;;;;;;;7.93;7.18;;;;;;;;;;5010147;28;20032;-82
2022/11/12 11:16:09;;;;;;;7.75;6.50;;;;;;;;;;5010014;28;20022;-83
2022/11/12 11:18:58;;;;;;;8.57;6.15;;;;;;;;;;4997990;28;20656;-83
2022/11/12 11:21:55;;;;;;;6.95;6.28;;;;;;;;;;5012308;28;20033;-82
2022/11/12 11:24:42;;;;;;;8.60;6.45;;;;;;;;;;5012509;28;20029;-81
2022/11/12 11:27:41;;;;;;;6.13;5.63;;;;;;;;;;5010628;28;20029;-82
2022/11/12 11:30:26;;;;;;;6.28;5.68;;;;;;;;;;4996886;28;20423;-81
2022/11/12 11:33:19;;;;;;;9.07;6.57;;;;;;;;;;4984905;28;20535;-82
2022/11/12 11:36:12;;;;;;;8.80;6.20;;;;;;;;;;4995457;28;20045;-81
2022/11/12 11:39:00;;;;;;;6.75;6.03;;;;;;;;;;5009555;28;20031;-82
2022/11/12 11:41:56;;;;;;;5.82;5.10;;;;;;;;;;5009672;28;20399;-81
2022/11/12 11:45:01;;;;;;;6.20;5.53;;;;;;;;;;5005209;28;20045;-82
2022/11/12 11:48:04;;;;;;;7.00;5.88;;;;;;;;;;4997567;28;20045;-81
2022/11/12 11:51:02;;;;;;;6.15;5.55;;;;;;;;;;5009377;28;20494;-81
2022/11/12 11:54:02;;;;;;;6.97;6.18;;;;;;;;;;4992604;28;20487;-81
2022/11/12 11:56:47;;;;;;;6.20;5.60;;;;;;;;;;5009070;28;20038;-82
2022/11/12 11:59:50;;;;;;;6.82;6.20;;;;;;;;;;5011596;28;20393;-82
2022/11/12 12:02:44;;;;;;;5.50;5.00;;;;;;;;;;4990212;28;20037;-81
2022/11/12 12:05:48;;;;;;;8.57;6.40;;;;;;;;;;5006776;28;20589;-82
2022/11/12 12:08:47;;;;;;;8.25;7.45;;;;;;;;;;4979492;28;20034;-82
2022/11/12 12:11:51;;;;;;;6.03;5.13;;;;;;;;;;4997687;28;20411;-81
2022/11/12 12:14:42;;;;;;;10.10;6.13;;;;;;;;;;5006703;28;20037;-82
2022/11/12 12:17:30;;;;;;;8.05;5.80;;;;;;;;;;5009618;28;20281;-82
2022/11/12 12:20:24;;;;;;;6.68;4.65;;;;;;;;;;5009990;28;20026;-82
2022/11/12 12:23:24;;;;;;;8.88;6.15;;;;;;;;;;5009241;28;20026;-82
2022/11/12 12:26:13;;;;;;;6.80;5.25;;;;;;;;;;4993256;28;20538;-83
2022/11/12 12:29:05;;;;;;;7.10;6.40;;;;;;;;;;4987861;28;20041;-82
2022/11/12 12:31:55;;;;;;;7.68;5.60;;;;;;;;;;5014387;28;20026;-82
2022/11/12 12:34:45;;;;;;;9.98;6.85;;;;;;;;;;5008449;28;20041;-83
2022/11/12 12:37:35;;;;;;;6.72;6.13;;;;;;;;;;5009286;28;20022;-83
2022/11/12 12:40:34;;;;;;;6.32;5.72;;;;;;;;;;4995790;28;20022;-85
2022/11/12 12:43:18;;;;;;;6.57;5.15;;;;;;;;;;5010415;28;20037;-79
2022/11/12 12:46:03;;;;;;;5.72;5.22;;;;;;;;;;5000713;28;20437;-82
2022/11/12 12:48:50;;;;;;;6.85;6.15;;;;;;;;;;5030038;22;20042;-75
2022/11/12 12:51:34;;;;;;;7.82;5.70;;;;;;;;;;4989777;28;20390;-75
2022/11/12 12:54:42;;;;;;;7.40;5.80;;;;;;;;;;5007054;28;20045;-75
2022/11/12 12:57:26;;;;;;;9.43;6.00;;;;;;;;;;5004573;28;20045;-75
2022/11/12 13:00:23;;;;;;;6.50;5.90;;;;;;;;;;4988227;28;20038;-75
2022/11/12 13:03:10;;;;;;;6.55;5.10;;;;;;;;;;5004139;28;20041;-75
2022/11/12 13:06:05;;;;;;;5.93;5.00;;;;;;;;;;4998236;28;20045;-75
2022/11/12 13:08:55;;;;;;;5.90;5.32;;;;;;;;;;4990815;28;20033;-75
2022/11/12 13:14:50;;;;;;;9.20;6.78;;;;;;;;;;5008780;28;20388;-75
2022/11/12 13:17:41;;;;;;;7.45;6.45;;;;;;;;;;5010225;28;20029;-75
2022/11/12 13:20:28;;;;;;;;;;;;;;;;;;4992238;28;20037;-75
2022/11/12 13:23:12;;;;;;;;;;;;;;;;;;5013862;28;19909;-75
2022/11/12 13:26:15;;;;;;;5.93;5.10;;;;;;;;;;5012872;28;19914;-75
2022/11/12 13:29:18;;;;;;;6.50;4.88;;;;;;;;;;5008626;28;20037;-75
2022/11/12 13:32:21;;;;;;;8.73;5.03;;;;;;;;;;5007317;28;20037;-74
2022/11/12 13:35:20;;;;;;;6.80;5.70;;;;;;;;;;5013387;28;20038;-75
2022/11/12 13:38:08;;;;;;;9.65;5.07;;;;;;;;;;5012565;28;20041;-75
2022/11/12 13:41:10;;;;;;;5.53;4.97;;;;;;;;;;4991295;28;20492;-75
2022/11/12 13:43:59;;;;;;;6.43;5.82;;;;;;;;;;5022277;28;20034;-75
2022/11/12 13:46:44;;;;;;;7.07;5.57;;;;;;;;;;4991780;28;20041;-75
2022/11/12 13:49:28;;;;;;;8.80;7.78;;;;;;;;;;5011407;28;20037;-76
2022/11/12 13:52:14;;;;;;;11.35;8.75;;;;;;;;;;5005504;28;20037;-75
2022/11/12 13:55:05;;;;;;;9.40;8.38;;;;;;;;;;5013704;28;20034;-75
2022/11/12 13:57:50;;;;;;;9.32;8.32;;;;;;;;;;5004209;28;20038;-75
2022/11/12 14:00:37;;;;;;;8.63;7.75;;;;;;;;;;5008341;28;20396;-74
2022/11/12 14:03:27;;;;;;;9.63;7.93;;;;;;;;;;5011867;28;20021;-74
2022/11/12 14:06:31;;;;;;;11.63;7.93;;;;;;;;;;5007014;28;20034;-74
2022/11/12 14:09:24;;;;;;;8.00;6.30;;;;;;;;;;5000965;28;20022;-75
2022/11/12 14:12:56;;;;;;;8.30;7.07;;;;;;;;;;4952260;28;20030;-74
2022/11/12 14:15:40;;;;;;;7.32;6.60;;;;;;;;;;5007894;28;20045;-75
2022/11/12 14:18:30;;;;;;;7.22;6.55;;;;;;;;;;5011028;28;20502;-75
2022/11/12 14:21:18;;;;;;;7.68;6.88;;;;;;;;;;5009942;28;20037;-75
2022/11/12 14:24:09;;;;;;;9.15;7.28;;;;;;;;;;4993206;28;20030;-75
2022/11/12 14:26:54;;;;;;;7.95;6.32;;;;;;;;;;5009617;28;20034;-75
2022/11/12 14:29:40;;;;;;;8.45;7.03;;;;;;;;;;4994334;28;20034;-74
2022/11/12 14:32:33;;;;;;;9.77;6.82;;;;;;;;;;5004445;28;20029;-75
2022/11/12 14:35:22;;;;;;;7.63;6.82;;;;;;;;;;4989795;28;20053;-75
2022/11/12 14:38:17;;;;;;;10.05;6.72;;;;;;;;;;4993934;28;20029;-75
2022/11/12 14:41:17;;;;;;;8.20;7.47;;;;;;;;;;4981665;28;20400;-75
2022/11/12 14:44:02;;;;;;;9.07;7.28;;;;;;;;;;5009542;28;20030;-74
2022/11/12 14:46:48;;;;;;;8.80;7.90;;;;;;;;;;4991182;28;20045;-74
2022/11/12 14:49:38;;;;;;;7.90;6.80;;;;;;;;;;5006421;28;20033;-74
2022/11/12 14:52:34;;;;;;;8.18;7.28;;;;;;;;;;5008023;28;20030;-74
2022/11/12 14:55:20;;;;;;;9.93;7.57;;;;;;;;;;4988144;28;20030;-75
2022/11/12 14:58:04;;;;;;;9.10;6.82;;;;;;;;;;5004411;28;20033;-74
2022/11/12 15:00:53;;;;;;;10.10;7.72;;;;;;;;;;5007785;28;20037;-74
2022/11/12 15:03:40;;;;;;;11.90;8.93;;;;;;;;;;5007532;28;20034;-75
2022/11/12 15:06:28;;;;;;;11.68;9.20;;;;;;;;;;4998410;28;20033;-74
2022/11/12 15:09:17;;;;;;;12.80;10.88;;;;;;;;;;5006828;28;20030;-75
2022/11/12 15:12:03;;;;;;;13.98;10.88;;;;;;;;;;5007233;28;20018;-75
2022/11/12 15:14:51;;;;;;;14.50;12.02;;;;;;;;;;4992440;28;20030;-75
2022/11/12 15:17:36;;;;;;;12.40;10.77;;;;;;;;;;5010882;28;20380;-74
2022/11/12 15:20:23;;;;;;;9.27;7.25;;;;;;;;;;4990706;28;20052;-75
2022/11/12 15:23:17;;;;;;;11.57;10.40;;;;;;;;;;5004177;28;20030;-75
2022/11/12 15:26:02;;;;;;;12.02;10.15;;;;;;;;;;5007030;28;20026;-75
2022/11/12 15:29:11;;;;;;;11.15;9.98;;;;;;;;;;5008499;28;20030;-75
2022/11/12 15:32:03;;;;;;;13.48;10.43;;;;;;;;;;5011528;28;20384;-75
2022/11/12 15:34:48;;;;;;;11.60;9.73;;;;;;;;;;5003864;28;20514;-75
2022/11/12 15:37:41;;;;;;;12.77;9.85;;;;;;;;;;5008573;28;20022;-75
2022/11/12 15:40:26;;;;;;;13.73;11.05;;;;;;;;;;5009302;28;20026;-76
2022/11/12 15:43:31;;;;;;;14.95;11.27;;;;;;;;;;5012668;28;20029;-75
2022/11/12 15:46:18;;;;;;;17.67;13.77;;;;;;;;;;5016095;28;20046;-76
2022/11/12 15:49:12;;;;;;;17.65;12.73;;;;;;;;;;5019656;28;20034;-76
2022/11/12 15:51:59;;;;;;;13.77;12.13;;;;;;;;;;5023119;28;20030;-76
2022/11/12 15:54:44;;;;;;;14.55;12.75;;;;;;;;;;4999327;28;20483;-76
2022/11/12 15:57:33;;;;;;;16.08;13.98;;;;;;;;;;4992856;28;20030;-76
2022/11/12 16:00:21;;;;;;;13.88;11.57;;;;;;;;;;5006637;28;20034;-76
2022/11/12 16:03:10;;;;;;;24.15;17.23;;;;;;;;;;5008947;28;20582;-76
2022/11/12 16:05:55;;;;;;;14.68;13.15;;;;;;;;;;5009118;28;20484;-78
2022/11/12 16:08:40;;;;;;;20.15;15.00;;;;;;;;;;5012011;28;20033;-76
2022/11/12 16:11:38;;;;;;;18.48;16.08;;;;;;;;;;5011107;28;20034;-76
2022/11/12 16:14:25;;;;;;;21.40;16.35;;;;;;;;;;4994722;28;20025;-76
2022/11/12 16:17:14;;;;;;;20.17;17.75;;;;;;;;;;5008602;28;20610;-76
2022/11/12 16:20:00;;;;;;;17.88;15.20;;;;;;;;;;5020685;28;20026;-76
2022/11/12 16:22:48;;;;;;;20.55;15.45;;;;;;;;;;4996171;28;20030;-76
2022/11/12 16:25:37;;;;;;;30.95;17.85;;;;;;;;;;5006391;28;20037;-76
2022/11/12 16:28:21;;;;;;;31.25;22.92;;;;;;;;;;4994466;28;20030;-76
2022/11/12 16:31:05;;;;;;;59.80;20.25;;;;;;;;;;5008518;28;20030;-76
2022/11/12 16:33:50;;;;;;;54.03;21.98;;;;;;;;;;5011018;28;20034;-75
2022/11/12 16:36:37;;;;;;;215.68;39.28;;;;;;;;;;4981424;28;20049;-75
2022/11/12 16:39:24;;;;;;;34.72;25.60;;;;;;;;;;4993867;28;20042;-76
2022/11/12 16:42:13;;;;;;;40.17;20.90;;;;;;;;;;5002194;28;20484;-76
2022/11/12 16:44:58;;;;;;;33.05;22.60;;;;;;;;;;5002130;28;20480;-75
2022/11/12 16:47:44;;;;;;;44.20;20.70;;;;;;;;;;4976010;28;20412;-76
2022/11/12 16:50:31;;;;;;;48.50;21.38;;;;;;;;;;5008648;28;20030;-75
2022/11/12 16:53:15;;;;;;;24.35;17.65;;;;;;;;;;5009014;28;20115;-75
2022/11/12 16:55:59;;;;;;;28.33;16.83;;;;;;;;;;5008038;28;20033;-75
2022/11/12 16:58:43;;;;;;;48.97;17.88;;;;;;;;;;5006292;28;20406;-75
2022/11/12 17:01:34;;;;;;;34.58;18.60;;;;;;;;;;4989504;28;20033;-74